ABY122 OBBI-OMSJ
Flight info
| Callsign | ABY122 |
|---|---|
| Flight time | 0h 56m |
| Altitude | 25000 |
| Route | BHR N697 SODAK P559 KIVUS L305 EMOTA R784 GONVI |
| Aircraft | A320/M-SDE3FGHIRWY/LB1 |
Departure
| Time | 2026-05-08 11:01 |
|---|---|
| Airport | Bahrain International Airport (OBBI) |
Arrival
| Time | 2026-05-08 11:57 |
|---|---|
| Airport | Sharjah International Airport (OMSJ) |
| Time | Latitude | Longitude | Altitude | Speed | Heading |
|---|---|---|---|---|---|
| 2026-05-08 10:28 | 26.26587 | 50.63489 | 21 ft | 0 kts | 213° |
| 2026-05-08 10:48 | 26.26593 | 50.63493 | 21 ft | 4 kts | 212° |
| 2026-05-08 10:48 | 26.26616 | 50.63508 | 22 ft | 4 kts | 205° |
| 2026-05-08 10:48 | 26.26642 | 50.63519 | 23 ft | 4 kts | 190° |
| 2026-05-08 10:48 | 26.26666 | 50.63518 | 25 ft | 4 kts | 146° |
| 2026-05-08 10:49 | 26.26675 | 50.63509 | 22 ft | 1 kts | 123° |
| 2026-05-08 10:49 | 26.26675 | 50.63508 | 22 ft | 0 kts | 123° |
| 2026-05-08 10:54 | 26.26675 | 50.63509 | 21 ft | 2 kts | 123° |
| 2026-05-08 10:54 | 26.26643 | 50.63563 | 22 ft | 6 kts | 123° |
| 2026-05-08 10:54 | 26.26625 | 50.63595 | 22 ft | 4 kts | 122° |
| 2026-05-08 10:54 | 26.26595 | 50.63647 | 21 ft | 11 kts | 123° |
| 2026-05-08 10:55 | 26.26566 | 50.63701 | 21 ft | 5 kts | 111° |
| 2026-05-08 10:55 | 26.26582 | 50.63753 | 22 ft | 9 kts | 38° |
| 2026-05-08 10:55 | 26.26614 | 50.63808 | 21 ft | 9 kts | 94° |
| 2026-05-08 10:55 | 26.26571 | 50.63896 | 22 ft | 17 kts | 122° |
| 2026-05-08 10:56 | 26.26510 | 50.64002 | 21 ft | 16 kts | 122° |
| 2026-05-08 10:56 | 26.26451 | 50.64103 | 22 ft | 15 kts | 123° |
| 2026-05-08 10:56 | 26.26396 | 50.64199 | 20 ft | 15 kts | 123° |
| 2026-05-08 10:56 | 26.26327 | 50.64318 | 20 ft | 20 kts | 122° |
| 2026-05-08 10:57 | 26.26254 | 50.64444 | 19 ft | 19 kts | 122° |
| 2026-05-08 10:57 | 26.26188 | 50.64557 | 20 ft | 16 kts | 123° |
| 2026-05-08 10:57 | 26.26075 | 50.64754 | 20 ft | 14 kts | 122° |
| 2026-05-08 10:58 | 26.26029 | 50.64835 | 23 ft | 11 kts | 121° |
| 2026-05-08 10:58 | 26.26019 | 50.64912 | 21 ft | 10 kts | 76° |
| 2026-05-08 10:58 | 26.26028 | 50.64935 | 20 ft | 0 kts | 60° |
| 2026-05-08 10:58 | 26.26057 | 50.64970 | 19 ft | 10 kts | 39° |
| 2026-05-08 10:59 | 26.26115 | 50.65008 | 19 ft | 7 kts | 17° |
| 2026-05-08 10:59 | 26.26151 | 50.64981 | 18 ft | 0 kts | 302° |
| 2026-05-08 11:00 | 26.26151 | 50.64980 | 21 ft | 1 kts | 302° |
| 2026-05-08 11:00 | 26.26243 | 50.64821 | 18 ft | 60 kts | 303° |
| 2026-05-08 11:00 | 26.26586 | 50.64227 | 15 ft | 120 kts | 303° |
| 2026-05-08 11:00 | 26.27117 | 50.63306 | 32 ft | 164 kts | 303° |
| 2026-05-08 11:01 | 26.27727 | 50.62190 | 596 ft | 171 kts | 304° |
| 2026-05-08 11:01 | 26.28337 | 50.61029 | 1244 ft | 176 kts | 304° |
| 2026-05-08 11:01 | 26.29051 | 50.59845 | 1498 ft | 192 kts | 326° |
| 2026-05-08 11:01 | 26.30261 | 50.59129 | 1739 ft | 207 kts | 345° |
| 2026-05-08 11:02 | 26.31714 | 50.58631 | 2028 ft | 230 kts | 347° |
| 2026-05-08 11:02 | 26.34448 | 50.57975 | 3041 ft | 248 kts | 357° |
| 2026-05-08 11:02 | 26.36165 | 50.58309 | 3737 ft | 257 kts | 22° |
| 2026-05-08 11:03 | 26.37594 | 50.59553 | 4442 ft | 268 kts | 50° |
| 2026-05-08 11:03 | 26.38684 | 50.61266 | 5199 ft | 272 kts | 54° |
| 2026-05-08 11:03 | 26.39761 | 50.63026 | 5935 ft | 277 kts | 55° |
| 2026-05-08 11:03 | 26.41219 | 50.65415 | 6845 ft | 286 kts | 55° |
| 2026-05-08 11:04 | 26.41985 | 50.66664 | 7265 ft | 291 kts | 54° |
| 2026-05-08 11:04 | 26.43144 | 50.68551 | 7960 ft | 296 kts | 55° |
| 2026-05-08 11:04 | 26.44308 | 50.70439 | 8655 ft | 302 kts | 54° |
| 2026-05-08 11:04 | 26.45511 | 50.72389 | 9374 ft | 306 kts | 54° |
| 2026-05-08 11:05 | 26.46727 | 50.74361 | 10090 ft | 311 kts | 55° |
| 2026-05-08 11:05 | 26.47999 | 50.76422 | 10340 ft | 333 kts | 55° |
| 2026-05-08 11:05 | 26.49361 | 50.78630 | 10527 ft | 356 kts | 55° |
| 2026-05-08 11:05 | 26.50785 | 50.80942 | 11014 ft | 364 kts | 55° |
| 2026-05-08 11:06 | 26.52230 | 50.83297 | 11621 ft | 369 kts | 56° |
| 2026-05-08 11:06 | 26.53686 | 50.85677 | 12319 ft | 371 kts | 56° |
| 2026-05-08 11:06 | 26.55127 | 50.88030 | 13040 ft | 372 kts | 56° |
| 2026-05-08 11:06 | 26.56621 | 50.90402 | 13747 ft | 374 kts | 52° |
| 2026-05-08 11:07 | 26.58436 | 50.92506 | 14341 ft | 378 kts | 40° |
| 2026-05-08 11:07 | 26.60524 | 50.94324 | 14855 ft | 383 kts | 38° |
| 2026-05-08 11:07 | 26.62656 | 50.96160 | 15361 ft | 389 kts | 38° |
| 2026-05-08 11:07 | 26.64814 | 50.98029 | 15928 ft | 393 kts | 38° |
| 2026-05-08 11:08 | 26.66986 | 50.99914 | 16415 ft | 398 kts | 38° |
| 2026-05-08 11:08 | 26.69185 | 51.01825 | 16983 ft | 401 kts | 39° |
| 2026-05-08 11:08 | 26.71361 | 51.03734 | 17544 ft | 404 kts | 41° |
| 2026-05-08 11:08 | 26.73294 | 51.06022 | 18057 ft | 406 kts | 56° |
| 2026-05-08 11:09 | 26.74665 | 51.08791 | 18489 ft | 407 kts | 71° |
| 2026-05-08 11:09 | 26.75380 | 51.11853 | 18942 ft | 407 kts | 85° |
| 2026-05-08 11:09 | 26.75411 | 51.15006 | 19388 ft | 406 kts | 100° |
| 2026-05-08 11:09 | 26.74764 | 51.18064 | 19828 ft | 404 kts | 112° |
| 2026-05-08 11:10 | 26.73809 | 51.21043 | 20272 ft | 408 kts | 113° |
| 2026-05-08 11:10 | 26.72844 | 51.24041 | 20720 ft | 411 kts | 113° |
| 2026-05-08 11:10 | 26.71870 | 51.27068 | 21163 ft | 414 kts | 113° |
| 2026-05-08 11:10 | 26.70892 | 51.30110 | 21606 ft | 418 kts | 113° |
| 2026-05-08 11:11 | 26.69904 | 51.33179 | 22035 ft | 421 kts | 113° |
| 2026-05-08 11:11 | 26.68906 | 51.36272 | 22446 ft | 425 kts | 113° |
| 2026-05-08 11:11 | 26.67911 | 51.39353 | 22845 ft | 428 kts | 113° |
| 2026-05-08 11:11 | 26.66896 | 51.42498 | 23270 ft | 431 kts | 113° |
| 2026-05-08 11:12 | 26.65873 | 51.45674 | 23622 ft | 434 kts | 113° |
| 2026-05-08 11:12 | 26.64848 | 51.48864 | 23966 ft | 437 kts | 114° |
| 2026-05-08 11:12 | 26.63815 | 51.52081 | 24301 ft | 440 kts | 114° |
| 2026-05-08 11:12 | 26.62775 | 51.55317 | 24626 ft | 443 kts | 114° |
| 2026-05-08 11:13 | 26.61732 | 51.58568 | 24793 ft | 445 kts | 114° |
| 2026-05-08 11:13 | 26.60673 | 51.61860 | 24841 ft | 454 kts | 114° |
| 2026-05-08 11:13 | 26.59594 | 51.65199 | 24833 ft | 458 kts | 114° |
| 2026-05-08 11:13 | 26.58510 | 51.68560 | 24833 ft | 459 kts | 114° |
| 2026-05-08 11:14 | 26.57443 | 51.71870 | 24832 ft | 459 kts | 114° |
| 2026-05-08 11:14 | 26.56359 | 51.75233 | 24832 ft | 459 kts | 114° |
| 2026-05-08 11:14 | 26.55275 | 51.78590 | 24834 ft | 459 kts | 114° |
| 2026-05-08 11:14 | 26.54191 | 51.81943 | 24820 ft | 459 kts | 114° |
| 2026-05-08 11:15 | 26.53103 | 51.85303 | 24828 ft | 460 kts | 114° |
| 2026-05-08 11:15 | 26.52009 | 51.88663 | 24827 ft | 460 kts | 114° |
| 2026-05-08 11:15 | 26.50901 | 51.92019 | 24823 ft | 460 kts | 114° |
| 2026-05-08 11:15 | 26.49799 | 51.95329 | 24818 ft | 460 kts | 114° |
| 2026-05-08 11:16 | 26.48679 | 51.98679 | 24817 ft | 460 kts | 114° |
| 2026-05-08 11:16 | 26.47561 | 52.02029 | 24816 ft | 460 kts | 114° |
| 2026-05-08 11:16 | 26.46443 | 52.05381 | 24815 ft | 460 kts | 114° |
| 2026-05-08 11:16 | 26.45328 | 52.08723 | 24814 ft | 460 kts | 114° |
| 2026-05-08 11:17 | 26.44210 | 52.12068 | 24807 ft | 460 kts | 114° |
| 2026-05-08 11:17 | 26.43105 | 52.15375 | 24808 ft | 460 kts | 114° |
| 2026-05-08 11:17 | 26.41984 | 52.18720 | 24810 ft | 460 kts | 114° |
| 2026-05-08 11:17 | 26.40864 | 52.22069 | 24811 ft | 461 kts | 114° |
| 2026-05-08 11:18 | 26.39740 | 52.25427 | 24812 ft | 461 kts | 114° |
| 2026-05-08 11:18 | 26.38616 | 52.28779 | 24806 ft | 461 kts | 114° |
| 2026-05-08 11:18 | 26.37492 | 52.32132 | 24800 ft | 461 kts | 114° |
| 2026-05-08 11:18 | 26.36369 | 52.35479 | 24804 ft | 461 kts | 114° |
| 2026-05-08 11:19 | 26.35240 | 52.38821 | 24803 ft | 460 kts | 115° |
| 2026-05-08 11:19 | 26.34053 | 52.42140 | 24802 ft | 460 kts | 116° |
| 2026-05-08 11:19 | 26.32823 | 52.45385 | 24806 ft | 459 kts | 117° |
| 2026-05-08 11:19 | 26.31545 | 52.48642 | 24803 ft | 459 kts | 117° |
| 2026-05-08 11:20 | 26.30248 | 52.51899 | 24805 ft | 458 kts | 117° |
| 2026-05-08 11:20 | 26.28957 | 52.55157 | 24801 ft | 459 kts | 117° |
| 2026-05-08 11:20 | 26.27683 | 52.58414 | 24801 ft | 459 kts | 117° |
| 2026-05-08 11:20 | 26.26421 | 52.61685 | 24801 ft | 459 kts | 117° |
| 2026-05-08 11:21 | 26.25165 | 52.64966 | 24799 ft | 459 kts | 116° |
| 2026-05-08 11:21 | 26.23929 | 52.68200 | 24792 ft | 459 kts | 116° |
| 2026-05-08 11:21 | 26.22676 | 52.71476 | 24793 ft | 459 kts | 116° |
| 2026-05-08 11:21 | 26.21424 | 52.74754 | 24798 ft | 458 kts | 116° |
| 2026-05-08 11:22 | 26.20194 | 52.77982 | 24788 ft | 458 kts | 116° |
| 2026-05-08 11:22 | 26.18947 | 52.81256 | 24788 ft | 458 kts | 116° |
| 2026-05-08 11:22 | 26.17702 | 52.84517 | 24791 ft | 458 kts | 116° |
| 2026-05-08 11:22 | 26.16448 | 52.87785 | 24789 ft | 458 kts | 117° |
| 2026-05-08 11:23 | 26.15191 | 52.91046 | 24781 ft | 458 kts | 117° |
| 2026-05-08 11:23 | 26.13932 | 52.94311 | 24789 ft | 458 kts | 117° |
| 2026-05-08 11:23 | 26.12679 | 52.97561 | 24791 ft | 458 kts | 117° |
| 2026-05-08 11:23 | 26.11438 | 53.00778 | 24787 ft | 457 kts | 117° |
| 2026-05-08 11:24 | 26.10180 | 53.04040 | 24773 ft | 457 kts | 116° |
| 2026-05-08 11:24 | 26.08945 | 53.07302 | 24776 ft | 458 kts | 116° |
| 2026-05-08 11:24 | 26.07736 | 53.10578 | 24780 ft | 458 kts | 115° |
| 2026-05-08 11:24 | 26.06538 | 53.13872 | 24781 ft | 458 kts | 115° |
| 2026-05-08 11:25 | 26.05337 | 53.17187 | 24854 ft | 465 kts | 115° |
| 2026-05-08 11:25 | 26.04113 | 53.20553 | 24970 ft | 472 kts | 115° |
| 2026-05-08 11:25 | 26.02883 | 53.23919 | 25084 ft | 478 kts | 115° |
| 2026-05-08 11:25 | 26.01618 | 53.27363 | 25246 ft | 482 kts | 115° |
| 2026-05-08 11:26 | 26.00340 | 53.30824 | 25533 ft | 483 kts | 116° |
| 2026-05-08 11:26 | 25.99058 | 53.34285 | 25851 ft | 481 kts | 116° |
| 2026-05-08 11:26 | 25.97797 | 53.37692 | 25599 ft | 472 kts | 116° |
| 2026-05-08 11:26 | 25.96648 | 53.41036 | 25066 ft | 468 kts | 109° |
| 2026-05-08 11:27 | 25.96005 | 53.44596 | 24830 ft | 470 kts | 103° |
| 2026-05-08 11:27 | 25.95427 | 53.48180 | 24770 ft | 468 kts | 103° |
| 2026-05-08 11:27 | 25.94843 | 53.51750 | 24794 ft | 470 kts | 103° |
| 2026-05-08 11:27 | 25.94256 | 53.55319 | 24794 ft | 470 kts | 103° |
| 2026-05-08 11:28 | 25.93671 | 53.58887 | 24789 ft | 470 kts | 103° |
| 2026-05-08 11:28 | 25.93095 | 53.62418 | 24789 ft | 470 kts | 103° |
| 2026-05-08 11:28 | 25.92514 | 53.65989 | 24786 ft | 470 kts | 103° |
| 2026-05-08 11:28 | 25.91935 | 53.69556 | 24791 ft | 470 kts | 103° |
| 2026-05-08 11:29 | 25.91356 | 53.73127 | 24793 ft | 470 kts | 103° |
| 2026-05-08 11:29 | 25.90776 | 53.76698 | 24784 ft | 469 kts | 103° |
| 2026-05-08 11:29 | 25.90193 | 53.80265 | 24786 ft | 469 kts | 103° |
| 2026-05-08 11:29 | 25.89608 | 53.83835 | 24786 ft | 469 kts | 103° |
| 2026-05-08 11:30 | 25.89022 | 53.87405 | 24788 ft | 469 kts | 103° |
| 2026-05-08 11:30 | 25.88443 | 53.90934 | 24766 ft | 469 kts | 103° |
| 2026-05-08 11:30 | 25.87857 | 53.94505 | 24529 ft | 468 kts | 103° |
| 2026-05-08 11:30 | 25.87276 | 53.98049 | 24120 ft | 464 kts | 103° |
| 2026-05-08 11:31 | 25.86700 | 54.01565 | 23718 ft | 460 kts | 103° |
| 2026-05-08 11:31 | 25.86127 | 54.05050 | 23285 ft | 456 kts | 103° |
| 2026-05-08 11:31 | 25.85561 | 54.08474 | 22791 ft | 452 kts | 103° |
| 2026-05-08 11:31 | 25.84994 | 54.11892 | 22304 ft | 448 kts | 103° |
| 2026-05-08 11:32 | 25.84430 | 54.15288 | 21822 ft | 444 kts | 103° |
| 2026-05-08 11:32 | 25.83871 | 54.18640 | 21344 ft | 440 kts | 103° |
| 2026-05-08 11:32 | 25.83316 | 54.21973 | 20885 ft | 436 kts | 103° |
| 2026-05-08 11:32 | 25.82767 | 54.25272 | 20421 ft | 432 kts | 103° |
| 2026-05-08 11:33 | 25.82223 | 54.28541 | 19962 ft | 428 kts | 102° |
| 2026-05-08 11:33 | 25.81687 | 54.31746 | 19528 ft | 425 kts | 102° |
| 2026-05-08 11:33 | 25.81148 | 54.34959 | 19091 ft | 421 kts | 102° |
| 2026-05-08 11:33 | 25.80612 | 54.38146 | 18660 ft | 418 kts | 102° |
| 2026-05-08 11:34 | 25.80079 | 54.41312 | 18240 ft | 414 kts | 102° |
| 2026-05-08 11:34 | 25.79555 | 54.44447 | 17778 ft | 411 kts | 102° |
| 2026-05-08 11:34 | 25.79037 | 54.47556 | 17289 ft | 408 kts | 102° |
| 2026-05-08 11:34 | 25.78528 | 54.50599 | 16815 ft | 404 kts | 102° |
| 2026-05-08 11:35 | 25.78011 | 54.53655 | 16346 ft | 401 kts | 103° |
| 2026-05-08 11:35 | 25.77497 | 54.56684 | 15882 ft | 398 kts | 103° |
| 2026-05-08 11:35 | 25.76986 | 54.59692 | 15426 ft | 394 kts | 103° |
| 2026-05-08 11:35 | 25.76483 | 54.62668 | 14977 ft | 391 kts | 103° |
| 2026-05-08 11:36 | 25.75982 | 54.65627 | 14525 ft | 388 kts | 103° |
| 2026-05-08 11:36 | 25.75485 | 54.68556 | 14088 ft | 385 kts | 104° |
| 2026-05-08 11:36 | 25.74988 | 54.71466 | 13655 ft | 381 kts | 104° |
| 2026-05-08 11:36 | 25.74497 | 54.74342 | 13186 ft | 376 kts | 104° |
| 2026-05-08 11:37 | 25.74012 | 54.77180 | 12707 ft | 372 kts | 103° |
| 2026-05-08 11:37 | 25.73539 | 54.79947 | 12249 ft | 367 kts | 103° |
| 2026-05-08 11:37 | 25.73068 | 54.82715 | 11785 ft | 362 kts | 103° |
| 2026-05-08 11:37 | 25.72605 | 54.85440 | 11326 ft | 357 kts | 103° |
| 2026-05-08 11:38 | 25.72147 | 54.88135 | 10881 ft | 353 kts | 102° |
| 2026-05-08 11:38 | 25.71693 | 54.90795 | 10439 ft | 349 kts | 102° |
| 2026-05-08 11:38 | 25.71238 | 54.93424 | 10002 ft | 345 kts | 103° |
| 2026-05-08 11:38 | 25.70538 | 54.95955 | 9560 ft | 340 kts | 111° |
| 2026-05-08 11:39 | 25.69756 | 54.98374 | 9106 ft | 329 kts | 111° |
| 2026-05-08 11:39 | 25.69022 | 55.00680 | 8948 ft | 305 kts | 110° |
| 2026-05-08 11:39 | 25.68312 | 55.02860 | 8958 ft | 297 kts | 114° |
| 2026-05-08 11:39 | 25.67339 | 55.04864 | 8968 ft | 294 kts | 120° |
| 2026-05-08 11:40 | 25.66315 | 55.06832 | 8963 ft | 294 kts | 120° |
| 2026-05-08 11:40 | 25.65292 | 55.08796 | 8958 ft | 294 kts | 120° |
| 2026-05-08 11:40 | 25.64283 | 55.10740 | 8956 ft | 294 kts | 121° |
| 2026-05-08 11:40 | 25.63261 | 55.12708 | 8958 ft | 294 kts | 120° |
| 2026-05-08 11:41 | 25.62240 | 55.14676 | 8955 ft | 294 kts | 120° |
| 2026-05-08 11:41 | 25.61234 | 55.16621 | 8977 ft | 294 kts | 120° |
| 2026-05-08 11:41 | 25.60215 | 55.18585 | 8969 ft | 294 kts | 120° |
| 2026-05-08 11:41 | 25.59193 | 55.20553 | 8970 ft | 294 kts | 120° |
| 2026-05-08 11:42 | 25.58176 | 55.22515 | 8964 ft | 294 kts | 120° |
| 2026-05-08 11:42 | 25.57157 | 55.24482 | 8975 ft | 294 kts | 120° |
| 2026-05-08 11:42 | 25.56141 | 55.26448 | 8948 ft | 294 kts | 120° |
| 2026-05-08 11:42 | 25.55142 | 55.28379 | 8626 ft | 291 kts | 120° |
| 2026-05-08 11:43 | 25.54134 | 55.30325 | 8211 ft | 291 kts | 120° |
| 2026-05-08 11:43 | 25.53126 | 55.32270 | 7986 ft | 291 kts | 120° |
| 2026-05-08 11:43 | 25.52119 | 55.34203 | 7969 ft | 282 kts | 120° |
| 2026-05-08 11:43 | 25.51152 | 55.36046 | 7976 ft | 273 kts | 120° |
| 2026-05-08 11:44 | 25.50196 | 55.37860 | 7979 ft | 272 kts | 120° |
| 2026-05-08 11:44 | 25.49259 | 55.39643 | 7980 ft | 271 kts | 119° |
| 2026-05-08 11:44 | 25.48312 | 55.41450 | 7982 ft | 271 kts | 120° |
| 2026-05-08 11:44 | 25.47352 | 55.43250 | 7981 ft | 271 kts | 120° |
| 2026-05-08 11:45 | 25.46376 | 55.45034 | 7978 ft | 271 kts | 121° |
| 2026-05-08 11:45 | 25.45388 | 55.46822 | 7977 ft | 271 kts | 121° |
| 2026-05-08 11:45 | 25.44400 | 55.48594 | 7697 ft | 269 kts | 121° |
| 2026-05-08 11:45 | 25.43383 | 55.50338 | 7341 ft | 269 kts | 122° |
| 2026-05-08 11:46 | 25.42368 | 55.52045 | 7007 ft | 268 kts | 122° |
| 2026-05-08 11:46 | 25.41341 | 55.53765 | 6602 ft | 270 kts | 123° |
| 2026-05-08 11:46 | 25.40305 | 55.55507 | 6241 ft | 271 kts | 121° |
| 2026-05-08 11:46 | 25.39277 | 55.57241 | 5988 ft | 268 kts | 122° |
| 2026-05-08 11:47 | 25.38246 | 55.58978 | 5976 ft | 271 kts | 121° |
| 2026-05-08 11:47 | 25.37222 | 55.60743 | 5978 ft | 271 kts | 120° |
| 2026-05-08 11:47 | 25.36246 | 55.62492 | 5805 ft | 270 kts | 120° |
| 2026-05-08 11:47 | 25.35273 | 55.64258 | 5502 ft | 266 kts | 120° |
| 2026-05-08 11:48 | 25.34334 | 55.65968 | 5379 ft | 255 kts | 120° |
| 2026-05-08 11:48 | 25.33425 | 55.67620 | 5194 ft | 249 kts | 120° |
| 2026-05-08 11:48 | 25.32523 | 55.69258 | 4896 ft | 249 kts | 121° |
| 2026-05-08 11:48 | 25.31626 | 55.70879 | 4676 ft | 244 kts | 121° |
| 2026-05-08 11:49 | 25.30758 | 55.72443 | 4570 ft | 235 kts | 122° |
| 2026-05-08 11:49 | 25.29910 | 55.73964 | 4411 ft | 229 kts | 121° |
| 2026-05-08 11:49 | 25.29088 | 55.75444 | 4204 ft | 228 kts | 121° |
| 2026-05-08 11:49 | 25.28260 | 55.76925 | 3975 ft | 226 kts | 123° |
| 2026-05-08 11:50 | 25.27336 | 55.78329 | 3737 ft | 224 kts | 142° |
| 2026-05-08 11:50 | 25.25979 | 55.79052 | 3541 ft | 213 kts | 178° |
| 2026-05-08 11:50 | 25.24568 | 55.78828 | 3219 ft | 203 kts | 206° |
| 2026-05-08 11:50 | 25.23313 | 55.78155 | 2860 ft | 202 kts | 216° |
| 2026-05-08 11:51 | 25.22467 | 55.77001 | 2544 ft | 192 kts | 253° |
| 2026-05-08 11:51 | 25.22310 | 55.75571 | 2164 ft | 185 kts | 270° |
| 2026-05-08 11:51 | 25.22329 | 55.74160 | 1992 ft | 184 kts | 272° |
| 2026-05-08 11:51 | 25.22352 | 55.73217 | 1987 ft | 187 kts | 273° |
| 2026-05-08 11:52 | 25.22368 | 55.71842 | 1978 ft | 166 kts | 272° |
| 2026-05-08 11:52 | 25.22449 | 55.70340 | 1962 ft | 133 kts | 287° |
| 2026-05-08 11:52 | 25.22876 | 55.69469 | 1974 ft | 127 kts | 299° |
| 2026-05-08 11:52 | 25.23345 | 55.68658 | 1989 ft | 122 kts | 299° |
| 2026-05-08 11:53 | 25.23649 | 55.68132 | 1985 ft | 119 kts | 300° |
| 2026-05-08 11:53 | 25.24093 | 55.67364 | 1940 ft | 123 kts | 299° |
| 2026-05-08 11:53 | 25.24581 | 55.66530 | 1786 ft | 131 kts | 300° |
| 2026-05-08 11:53 | 25.25083 | 55.65667 | 1651 ft | 139 kts | 304° |
| 2026-05-08 11:54 | 25.25635 | 55.64766 | 1650 ft | 144 kts | 299° |
| 2026-05-08 11:54 | 25.26166 | 55.63810 | 1650 ft | 148 kts | 298° |
| 2026-05-08 11:54 | 25.26714 | 55.62845 | 1646 ft | 148 kts | 300° |
| 2026-05-08 11:54 | 25.27260 | 55.61892 | 1642 ft | 149 kts | 300° |
| 2026-05-08 11:55 | 25.27816 | 55.60926 | 1604 ft | 148 kts | 300° |
| 2026-05-08 11:55 | 25.28366 | 55.59973 | 1460 ft | 146 kts | 301° |
| 2026-05-08 11:55 | 25.28911 | 55.59029 | 1275 ft | 144 kts | 301° |
| 2026-05-08 11:55 | 25.29440 | 55.58114 | 1112 ft | 138 kts | 300° |
| 2026-05-08 11:56 | 25.29955 | 55.57220 | 956 ft | 139 kts | 301° |
| 2026-05-08 11:56 | 25.30469 | 55.56331 | 784 ft | 134 kts | 298° |
| 2026-05-08 11:56 | 25.30975 | 55.55449 | 532 ft | 141 kts | 301° |
| 2026-05-08 11:56 | 25.31500 | 55.54546 | 310 ft | 138 kts | 300° |
| 2026-05-08 11:57 | 25.32021 | 55.53650 | 177 ft | 138 kts | 300° |
| 2026-05-08 11:57 | 25.32525 | 55.52771 | 120 ft | 125 kts | 301° |
| 2026-05-08 11:57 | 25.32912 | 55.52093 | 116 ft | 79 kts | 302° |
| 2026-05-08 11:57 | 25.33118 | 55.51735 | 116 ft | 38 kts | 302° |
| 2026-05-08 11:58 | 25.33186 | 55.51552 | 119 ft | 22 kts | 281° |
| 2026-05-08 11:58 | 25.33200 | 55.51381 | 116 ft | 23 kts | 272° |
| 2026-05-08 11:58 | 25.33204 | 55.51268 | 116 ft | 0 kts | 272° |
| 2026-05-08 11:59 | 25.33205 | 55.51266 | 116 ft | 2 kts | 272° |
| 2026-05-08 11:59 | 25.33208 | 55.51185 | 116 ft | 14 kts | 272° |
| 2026-05-08 11:59 | 25.33229 | 55.51080 | 116 ft | 15 kts | 295° |
| 2026-05-08 12:00 | 25.33282 | 55.50987 | 113 ft | 9 kts | 302° |
| 2026-05-08 12:00 | 25.33304 | 55.50918 | 113 ft | 10 kts | 262° |
| 2026-05-08 12:00 | 25.33250 | 55.50863 | 111 ft | 11 kts | 212° |
| 2026-05-08 12:00 | 25.33179 | 55.50840 | 113 ft | 10 kts | 163° |
| 2026-05-08 12:01 | 25.33137 | 55.50896 | 112 ft | 9 kts | 122° |
| 2026-05-08 12:01 | 25.33105 | 55.50952 | 114 ft | 9 kts | 122° |
| 2026-05-08 12:01 | 25.33053 | 55.51041 | 113 ft | 15 kts | 123° |
| 2026-05-08 12:01 | 25.32999 | 55.51135 | 115 ft | 14 kts | 122° |